Main page
Satellite images 15-day forecastsClimateMarine weather Cyclones Lightning AirportsFAQ Newsletter About
Weather : Europe Africa North America South America Asia Australia-Oceania Others
Languages Contact

Istanbul Atatürk, Turkey

latitude: 40-58N, longitude: 028-49E, elevation: 48 m


METAR: LTBA 220420Z 26006KT 220V290 CAVOK 17/12 Q1010 NOSIG RMK RWY17L 25007KT 180V270 RWY05 26009KT RWY23 26010KT
TAF: LTBA 212240Z 2200/2306 22013KT CAVOK TEMPO 2206/2210 24015G25KT BECMG 2210/2214 SCT035

Time: 07:45 (04:45 UTC)

Current weather observation

The report was made 25 minutes ago, at 04:20 UTC
Wind 6 kt from the West, varying between Southwest and West/Northwest
Temperature 17°C
Humidity 72%
Pressure 1010 hPa
Visibility 10 km or more
no clouds below 1500 m and no cumulonimbus

Change units

Forecast

The report was made 6 hours and 5 minutes ago, at 22:40 UTC
Forecast valid from 22 at 00 UTC to 23 at 06 UTC
Wind 13 kt from the Southwest
Visibility 10 km or more
no clouds below 1500 m and no cumulonimbus
Temporary
from 22 at 06 UTC to 22 at 10 UTC
Wind 15 kt from the West/Southwest with gusts up to 25 kt
Becoming
from 22 at 10 UTC to 22 at 14 UTC
Scattered clouds at a height of 3500 ft
The information on this site is subject to a disclaimer
Weather : Europe Africa North America South America Asia Australia-Oceania Others
Satellite images 15-day forecastsClimateMarine weather Cyclones Lightning AirportsFAQ Languages Contact Newsletter About